createdAt,value
2018-08-03T00:00:01.652Z,20.77
2018-08-03T00:05:02.008Z,20.71
2018-08-03T00:10:01.408Z,20.63
2018-08-03T00:15:01.764Z,20.63
2018-08-03T00:20:01.137Z,20.65
2018-08-03T00:25:01.433Z,20.87
2018-08-03T00:30:01.840Z,20.76
2018-08-03T00:35:01.149Z,20.66
2018-08-03T00:40:01.414Z,20.57
2018-08-03T00:45:01.731Z,20.55
2018-08-03T00:50:02.154Z,20.49
2018-08-03T00:55:01.590Z,20.54
2018-08-03T01:00:01.860Z,20.46
2018-08-03T01:05:01.307Z,20.36
2018-08-03T01:10:01.688Z,20.28
2018-08-03T01:15:02.007Z,20.16
2018-08-03T01:20:01.392Z,20.04
2018-08-03T01:25:01.804Z,19.96
2018-08-03T01:30:01.204Z,19.86
2018-08-03T01:35:01.616Z,19.79
2018-08-03T01:40:02.059Z,19.72
2018-08-03T01:45:01.410Z,19.65
2018-08-03T01:50:01.837Z,19.6
2018-08-03T01:55:01.270Z,19.57
2018-08-03T02:00:01.612Z,19.54
2018-08-03T02:05:01.976Z,19.52
2018-08-03T02:10:01.447Z,19.5
2018-08-03T02:15:01.790Z,19.45
2018-08-03T02:20:02.139Z,19.47
2018-08-03T02:25:01.672Z,19.43
2018-08-03T02:30:01.605Z,19.4
2018-08-03T02:35:02.154Z,19.35
2018-08-03T02:40:01.647Z,19.29
2018-08-03T02:45:01.943Z,19.24
2018-08-03T02:50:01.286Z,19.22
2018-08-03T02:55:01.644Z,19.14
2018-08-03T03:00:01.879Z,19.09
2018-08-03T03:05:01.172Z,19.07
2018-08-03T03:10:01.464Z,19
2018-08-03T03:15:01.737Z,18.98
2018-08-03T03:20:02.015Z,18.91
2018-08-03T03:25:01.450Z,18.84
2018-08-03T03:30:01.708Z,18.83
2018-08-03T03:35:02.009Z,18.84
2018-08-03T03:40:01.428Z,18.81
2018-08-03T03:45:01.723Z,18.74
2018-08-03T03:50:02.037Z,18.7
2018-08-03T03:55:01.379Z,18.66
2018-08-03T04:00:01.673Z,18.66
2018-08-03T04:05:01.962Z,18.67
2018-08-03T04:10:01.339Z,18.73
2018-08-03T04:15:01.616Z,18.69
2018-08-03T04:20:01.997Z,18.69
2018-08-03T04:25:01.416Z,18.66
2018-08-03T04:30:01.850Z,18.64
2018-08-03T04:35:01.106Z,18.71
2018-08-03T04:40:01.270Z,18.69
2018-08-03T04:45:01.555Z,18.74
2018-08-03T04:50:01.887Z,18.79
2018-08-03T04:55:01.222Z,18.78
2018-08-03T05:00:01.489Z,18.79
2018-08-03T05:05:01.897Z,18.79
2018-08-03T05:10:01.241Z,18.8
2018-08-03T05:15:01.469Z,18.83
2018-08-03T05:20:01.870Z,18.91
2018-08-03T05:25:01.217Z,18.96
2018-08-03T05:30:01.469Z,19.08
2018-08-03T05:35:01.844Z,19.21
2018-08-03T05:40:01.285Z,19.37
2018-08-03T05:45:01.525Z,19.52
2018-08-03T05:50:01.902Z,19.72
2018-08-03T05:55:01.266Z,19.89
2018-08-03T06:00:01.548Z,20.06
2018-08-03T06:05:01.880Z,20.22
2018-08-03T06:10:01.226Z,20.39
2018-08-03T06:15:01.500Z,20.56
2018-08-03T06:20:01.830Z,20.77
2018-08-03T06:25:01.201Z,20.92
2018-08-03T06:30:01.447Z,21.17
2018-08-03T06:35:01.868Z,21.45
2018-08-03T06:40:01.194Z,21.78
2018-08-03T06:45:01.449Z,22.23
2018-08-03T06:50:01.734Z,22.68
2018-08-03T06:55:01.992Z,23.54
2018-08-03T07:00:01.236Z,24.5
2018-08-03T07:05:01.539Z,25.33
2018-08-03T07:10:01.979Z,25.69
2018-08-03T07:15:01.378Z,26.13
2018-08-03T07:20:02.090Z,25.9
2018-08-03T07:25:01.862Z,25.72
2018-08-03T07:30:01.231Z,25.22
2018-08-03T07:35:01.552Z,26.04
2018-08-03T07:40:02.011Z,26.2
2018-08-03T07:45:01.482Z,25.88
2018-08-03T07:50:01.134Z,26.28
2018-08-03T07:55:01.370Z,25.87
2018-08-03T08:00:01.625Z,26.5
2018-08-03T08:05:01.984Z,26.41
2018-08-03T08:10:01.423Z,26.56
2018-08-03T08:15:01.659Z,26.31
2018-08-03T08:20:01.964Z,26.47
2018-08-03T08:25:01.403Z,26.68
2018-08-03T08:30:01.696Z,27.17
2018-08-03T08:35:02.044Z,27.7
2018-08-03T08:40:01.410Z,28.7
2018-08-03T08:45:01.692Z,28.93
2018-08-03T08:50:02.040Z,28.71
2018-08-03T08:55:01.429Z,27.87
2018-08-03T09:00:01.697Z,28.1
2018-08-03T09:05:02.050Z,27.95
2018-08-03T09:10:01.459Z,28.21
2018-08-03T09:15:01.727Z,29.11
2018-08-03T09:20:02.169Z,30.15
2018-08-03T09:25:01.563Z,30.24
2018-08-03T09:30:01.909Z,29.77
2018-08-03T09:35:01.173Z,29.27
2018-08-03T09:40:01.451Z,29.51
2018-08-03T09:45:01.744Z,29.47
2018-08-03T09:50:02.016Z,29.87
2018-08-03T09:55:01.362Z,29.98
2018-08-03T10:00:01.666Z,30.36
2018-08-03T10:05:01.969Z,30.07
2018-08-03T10:10:01.363Z,29.71
2018-08-03T10:15:01.673Z,30.7
2018-08-03T10:20:01.971Z,30.99
2018-08-03T10:25:01.368Z,30.6
2018-08-03T10:30:01.705Z,31.05
2018-08-03T10:35:02.078Z,31.34
2018-08-03T10:40:01.713Z,31.05
2018-08-03T10:45:01.986Z,31.15
2018-08-03T10:50:01.227Z,31.93
2018-08-03T10:55:01.574Z,31.87
2018-08-03T11:00:01.825Z,31.94
2018-08-03T11:05:01.125Z,32.4
2018-08-03T11:10:01.369Z,31.68
2018-08-03T11:15:01.708Z,31.29
2018-08-03T11:20:01.998Z,31.78
2018-08-03T11:25:01.403Z,31.39
2018-08-03T11:30:01.772Z,31.78
2018-08-03T11:35:02.238Z,32.08
2018-08-03T11:40:01.709Z,31.88
2018-08-03T11:45:01.959Z,32.45
2018-08-03T11:50:01.251Z,32.6
2018-08-03T11:55:01.614Z,32.29
2018-08-03T12:00:01.871Z,32.53
2018-08-03T12:05:01.130Z,32.64
2018-08-03T12:10:01.375Z,32.73
2018-08-03T12:15:01.655Z,32.62
2018-08-03T12:20:01.975Z,32.83
2018-08-03T12:25:01.332Z,32.89
2018-08-03T12:30:01.633Z,32.81
2018-08-03T12:35:02.035Z,32.46
2018-08-03T12:40:01.407Z,32.29
2018-08-03T12:45:01.711Z,32.19
2018-08-03T12:50:02.040Z,32.46
2018-08-03T12:55:01.452Z,32.58
2018-08-03T13:00:01.724Z,32.61
2018-08-03T13:05:02.107Z,32.55
2018-08-03T13:10:01.542Z,32.67
2018-08-03T13:15:01.775Z,32.87
2018-08-03T13:20:01.215Z,33.04
2018-08-03T13:25:01.484Z,33.13
2018-08-03T13:30:01.797Z,33.18
2018-08-03T13:35:02.165Z,33.21
2018-08-03T13:40:01.590Z,33.22
2018-08-03T13:45:01.845Z,33.23
2018-08-03T13:50:01.148Z,33.34
2018-08-03T13:55:01.410Z,33.37
2018-08-03T14:00:01.741Z,33.38
2018-08-03T14:05:02.048Z,33.29
2018-08-03T14:10:01.482Z,33.42
2018-08-03T14:15:01.720Z,33.51
2018-08-03T14:20:02.031Z,33.28
2018-08-03T14:25:01.484Z,33.38
2018-08-03T14:30:01.807Z,33.27
2018-08-03T14:35:01.273Z,33.48
2018-08-03T14:40:01.550Z,33.49
2018-08-03T14:45:01.826Z,33.51
2018-08-03T14:50:01.083Z,33.3
2018-08-03T14:55:01.527Z,33.45
2018-08-03T15:00:01.811Z,33.53
2018-08-03T15:05:01.140Z,33.58
2018-08-03T15:10:01.406Z,33.6
2018-08-03T15:15:01.644Z,33.58
2018-08-03T15:20:01.973Z,33.49
2018-08-03T15:25:01.395Z,33.52
2018-08-03T15:30:01.682Z,33.55
2018-08-03T15:35:02.017Z,33.52
2018-08-03T15:40:01.486Z,33.51
2018-08-03T15:45:01.747Z,33.47
2018-08-03T15:50:02.064Z,33.35
2018-08-03T15:55:01.461Z,33.14
2018-08-03T16:00:01.782Z,32.92
2018-08-03T16:05:01.116Z,32.89
2018-08-03T16:10:01.371Z,32.91
2018-08-03T16:15:01.646Z,33.47
2018-08-03T16:20:01.969Z,33.38
2018-08-03T16:25:01.361Z,33.48
2018-08-03T16:30:01.632Z,33.2
2018-08-03T16:35:01.949Z,32.89
2018-08-03T16:40:01.353Z,32.66
2018-08-03T16:45:01.643Z,32.52
2018-08-03T16:50:01.960Z,32.59
2018-08-03T16:55:01.336Z,32.82
2018-08-03T17:00:01.598Z,32.68
2018-08-03T17:05:01.962Z,32.52
2018-08-03T17:10:01.309Z,32.28
2018-08-03T17:15:01.606Z,32.39
2018-08-03T17:20:01.962Z,32.81
2018-08-03T17:25:01.330Z,32.69
2018-08-03T17:30:01.580Z,32.35
2018-08-03T17:35:01.991Z,32.32
2018-08-03T17:40:01.420Z,32.19
2018-08-03T17:45:01.725Z,32.49
2018-08-03T17:50:02.046Z,32.37
2018-08-03T17:55:01.471Z,32.29
2018-08-03T18:00:01.744Z,32.28
2018-08-03T18:05:02.092Z,32.42
2018-08-03T18:10:01.557Z,32.11
2018-08-03T18:15:01.814Z,31.72
2018-08-03T18:20:01.188Z,31.72
2018-08-03T18:25:01.437Z,31.7
2018-08-03T18:30:01.771Z,31.43
2018-08-03T18:35:02.086Z,31.22
2018-08-03T18:40:01.491Z,30.99
2018-08-03T18:45:01.758Z,30.91
2018-08-03T18:50:02.127Z,30.72
2018-08-03T18:55:01.531Z,30.37
2018-08-03T19:00:01.774Z,30.41
2018-08-03T19:05:02.141Z,30.12
2018-08-03T19:10:01.581Z,30.45
2018-08-03T19:15:01.082Z,30.28
2018-08-03T19:20:01.333Z,29.95
2018-08-03T19:25:01.731Z,30.19
2018-08-03T19:30:02.073Z,30.13
2018-08-03T19:35:01.356Z,30.01
2018-08-03T19:40:01.651Z,29.65
2018-08-03T19:45:01.923Z,29.24
2018-08-03T19:50:01.439Z,29.45
2018-08-03T19:55:01.778Z,28.97
2018-08-03T20:00:02.009Z,28.76
2018-08-03T20:05:01.345Z,28.48
2018-08-03T20:10:01.910Z,28.12
2018-08-03T20:15:01.534Z,27.75
2018-08-03T20:20:01.908Z,27.36
2018-08-03T20:25:01.298Z,27.06
2018-08-03T20:30:01.539Z,26.75
2018-08-03T20:35:01.872Z,26.54
2018-08-03T20:40:01.264Z,26.27
2018-08-03T20:45:01.511Z,26.06
2018-08-03T20:50:01.823Z,25.9
2018-08-03T20:55:01.191Z,25.78
2018-08-03T21:00:01.463Z,25.69
2018-08-03T21:05:01.785Z,25.56
2018-08-03T21:10:02.044Z,25.4
2018-08-03T21:15:01.268Z,25.31
2018-08-03T21:20:01.660Z,25.32
2018-08-03T21:25:02.001Z,25.18
2018-08-03T21:30:01.242Z,25.08
2018-08-03T21:35:01.721Z,25.01
2018-08-03T21:40:01.098Z,24.95
2018-08-03T21:45:01.368Z,24.77
2018-08-03T21:50:01.715Z,24.68
2018-08-03T21:55:01.092Z,24.51
2018-08-03T22:00:01.355Z,24.41
2018-08-03T22:05:01.711Z,24.34
2018-08-03T22:10:02.065Z,24.28
2018-08-03T22:15:01.303Z,24.19
2018-08-03T22:20:01.613Z,24.28
2018-08-03T22:25:01.917Z,24.32
2018-08-03T22:30:01.218Z,24.33
2018-08-03T22:35:01.541Z,24.28
2018-08-03T22:40:01.938Z,24.21
2018-08-03T22:45:01.191Z,24.11
2018-08-03T22:50:01.444Z,24.02
2018-08-03T22:55:01.821Z,23.96
2018-08-03T23:00:02.090Z,23.85
2018-08-03T23:05:01.339Z,23.72
2018-08-03T23:10:01.660Z,23.65
2018-08-03T23:15:02.012Z,23.47
2018-08-03T23:20:01.276Z,23.37
2018-08-03T23:25:01.542Z,23.28
2018-08-03T23:30:01.786Z,23.15
2018-08-03T23:35:01.085Z,23.12
2018-08-03T23:40:01.361Z,23.18
2018-08-03T23:45:01.670Z,23.16
2018-08-03T23:50:01.974Z,22.97
2018-08-03T23:55:01.307Z,22.88
